Time;durP1;ratioP1;P1;durP2;ratioP2;P2;SDS_P1;SDS_P2;PMS_P1;PMS_P2;Temp;Humidity;BMP_temperature;BMP_pressure;BME280_temperature;BME280_humidity;BME280_pressure;Samples;Min_cycle;Max_cycle;Signal;HPM_P1;HPM_P2
2023/07/16 00:00:19;;;;;;;4.10;3.80;;;;;;;21.29;100.00;96496.06;5078896;28;20210;-62
2023/07/16 00:02:47;;;;;;;3.70;3.50;;;;;;;21.19;100.00;96499.56;5072468;28;20214;-63
2023/07/16 00:05:15;;;;;;;4.27;3.87;;;;;;;21.17;100.00;96501.72;5075614;28;20259;-62
2023/07/16 00:07:43;;;;;;;4.23;3.93;;;;;;;21.14;100.00;96507.66;5073818;28;20210;-62
2023/07/16 00:10:12;;;;;;;4.10;3.90;;;;;;;21.09;100.00;96509.25;5075290;28;20263;-63
2023/07/16 00:12:40;;;;;;;4.07;3.87;;;;;;;21.07;100.00;96530.28;5075078;28;20211;-63
2023/07/16 00:15:09;;;;;;;4.67;4.20;;;;;;;21.07;100.00;96553.69;5071720;28;20834;-61
2023/07/16 00:17:37;;;;;;;5.87;4.53;;;;;;;21.04;100.00;96581.16;5067765;28;20234;-61
2023/07/16 00:20:06;;;;;;;4.03;3.80;;;;;;;21.01;100.00;96609.41;5070920;28;20226;-60
2023/07/16 00:22:33;;;;;;;4.33;4.03;;;;;;;20.82;100.00;96592.94;5068443;28;20259;-62
2023/07/16 00:25:02;;;;;;;4.53;4.13;;;;;;;21.00;100.00;96639.31;5076009;28;20267;-66
2023/07/16 00:27:31;;;;;;;4.03;3.73;;;;;;;21.01;100.00;96630.94;5072930;28;20623;-62
2023/07/16 00:29:59;;;;;;;3.67;3.47;;;;;;;21.00;100.00;96631.22;5074893;28;20239;-64
2023/07/16 00:32:26;;;;;;;3.70;3.40;;;;;;;20.96;100.00;96660.56;5072272;28;20284;-60
2023/07/16 00:34:54;;;;;;;3.77;3.57;;;;;;;20.94;100.00;96674.31;5072563;28;20237;-62
2023/07/16 00:37:22;;;;;;;4.10;3.80;;;;;;;20.85;100.00;96653.53;5077754;28;20808;-62
2023/07/16 00:39:49;;;;;;;3.83;3.53;;;;;;;20.81;100.00;96674.75;5068520;28;20226;-65
2023/07/16 00:42:17;;;;;;;4.53;4.20;;;;;;;20.38;100.00;96670.22;5077135;28;20312;-61
2023/07/16 00:44:46;;;;;;;4.67;4.37;;;;;;;20.08;100.00;96660.06;5075716;28;20684;-62
2023/07/16 00:47:14;;;;;;;4.60;4.17;;;;;;;19.90;100.00;96619.09;5076063;28;20289;-62
2023/07/16 00:49:42;;;;;;;4.40;4.10;;;;;;;19.74;100.00;96609.25;5071467;28;20197;-62
2023/07/16 00:52:17;;;;;;;4.60;4.30;;;;;;;19.65;100.00;96617.81;5075824;28;20694;-63
2023/07/16 00:54:46;;;;;;;4.83;4.40;;;;;;;19.57;100.00;96582.53;5077887;28;20214;-63
2023/07/16 00:57:13;;;;;;;4.53;4.23;;;;;;;19.51;100.00;96598.59;5076338;28;20210;-62
2023/07/16 00:59:41;;;;;;;4.83;4.47;;;;;;;19.51;100.00;96622.00;5076889;28;20312;-62
2023/07/16 01:02:10;;;;;;;4.87;4.47;;;;;;;19.50;100.00;96647.19;5075626;28;20202;-63
2023/07/16 01:04:37;;;;;;;4.43;4.13;;;;;;;19.48;100.00;96650.16;5071437;28;20242;-64
2023/07/16 01:07:07;;;;;;;5.20;4.70;;;;;;;19.46;100.00;96630.81;5076369;28;20656;-63
2023/07/16 01:09:36;;;;;;;5.10;4.60;;;;;;;19.47;100.00;96628.91;5077652;28;20206;-62
2023/07/16 01:12:06;;;;;;;4.47;4.17;;;;;;;19.45;100.00;96617.59;5073293;28;20230;-65
2023/07/16 01:14:34;;;;;;;4.93;4.53;;;;;;;19.42;100.00;96639.63;5074304;28;20312;-63
2023/07/16 01:17:04;;;;;;;5.43;4.47;;;;;;;19.46;100.00;96632.66;5075250;28;20205;-63
2023/07/16 01:19:33;;;;;;;4.90;4.60;;;;;;;19.44;100.00;96669.72;5075301;28;20264;-64
2023/07/16 01:22:12;;;;;;;5.00;4.60;;;;;;;19.47;100.00;96702.28;5081778;28;20260;-64
2023/07/16 01:25:17;;;;;;;4.87;4.43;;;;;;;19.42;100.00;96752.44;5078073;28;20233;-63
2023/07/16 01:28:01;;;;;;;5.10;4.43;;;;;;;19.50;100.00;96731.31;5077362;28;20264;-63
2023/07/16 01:30:31;;;;;;;4.67;4.27;;;;;;;19.37;100.00;96770.13;5068502;28;20981;-64
2023/07/16 01:32:58;;;;;;;5.17;4.73;;;;;;;19.41;100.00;96793.78;5079702;28;20285;-63
2023/07/16 01:35:26;;;;;;;5.77;4.80;;;;;;;19.47;100.00;96835.75;5080122;28;20234;-62
2023/07/16 01:37:54;;;;;;;4.87;4.47;;;;;;;19.57;100.00;96868.16;5077498;28;20730;-62
2023/07/16 01:40:21;;;;;;;5.10;4.70;;;;;;;19.58;100.00;96877.84;5075807;28;20267;-61
2023/07/16 01:42:49;;;;;;;8.83;6.10;;;;;;;19.44;100.00;96869.34;5077635;28;20234;-62
2023/07/16 01:45:17;;;;;;;5.23;4.73;;;;;;;19.21;100.00;96865.00;5078372;28;20246;-63
2023/07/16 01:48:02;;;;;;;5.33;4.83;;;;;;;18.98;100.00;96876.75;5076725;28;20260;-63
2023/07/16 01:50:29;;;;;;;5.57;5.17;;;;;;;18.83;100.00;96875.41;5072298;28;20870;-64
2023/07/16 01:52:57;;;;;;;5.23;4.63;;;;;;;18.70;100.00;96879.22;5078116;28;20237;-64
2023/07/16 01:55:25;;;;;;;5.87;5.33;;;;;;;18.59;100.00;96902.41;5077918;28;20313;-64
2023/07/16 01:57:52;;;;;;;5.60;5.20;;;;;;;18.54;100.00;96912.25;5075147;28;20263;-65
2023/07/16 02:00:20;;;;;;;6.37;5.77;;;;;;;18.45;100.00;96907.28;5073715;28;20316;-63
2023/07/16 02:02:49;;;;;;;5.97;5.57;;;;;;;18.50;100.00;96896.63;5071791;28;20219;-64
2023/07/16 02:05:17;;;;;;;6.00;5.40;;;;;;;18.48;100.00;96892.56;5074679;28;20707;-65
2023/07/16 02:07:45;;;;;;;6.27;5.73;;;;;;;18.50;100.00;96899.31;5083259;28;20754;-65
2023/07/16 02:10:12;;;;;;;5.63;5.13;;;;;;;18.51;100.00;96918.88;5083740;28;20198;-67
2023/07/16 02:12:40;;;;;;;6.00;5.60;;;;;;;18.49;100.00;96932.56;5076400;28;20293;-63
2023/07/16 02:15:08;;;;;;;7.43;6.83;;;;;;;18.50;100.00;96934.19;5075965;28;20297;-67
2023/07/16 02:17:35;;;;;;;6.47;6.07;;;;;;;18.55;100.00;96938.00;5071591;28;20302;-64
2023/07/16 02:20:06;;;;;;;7.17;6.47;;;;;;;18.57;100.00;96930.53;5080022;28;20313;-64
2023/07/16 02:22:36;;;;;;;6.93;6.30;;;;;;;18.58;100.00;96924.94;5074428;28;20198;-65
2023/07/16 02:25:04;;;;;;;8.67;6.33;;;;;;;18.58;100.00;96929.47;5077802;28;20231;-66
2023/07/16 02:27:32;;;;;;;7.27;6.63;;;;;;;18.55;100.00;96916.56;5078111;28;20218;-65
2023/07/16 02:29:59;;;;;;;7.23;5.47;;;;;;;18.60;100.00;96912.09;5076767;28;20198;-64
2023/07/16 02:32:27;;;;;;;7.93;5.87;;;;;;;18.60;100.00;96919.31;5075671;28;20335;-62
2023/07/16 02:34:55;;;;;;;6.83;6.23;;;;;;;18.57;100.00;96928.69;5075842;28;20849;-64
2023/07/16 02:37:24;;;;;;;6.63;6.03;;;;;;;18.53;100.00;96940.94;5074734;28;20198;-64
2023/07/16 02:39:51;;;;;;;5.77;5.37;;;;;;;18.53;100.00;96919.47;5076406;28;20846;-66
2023/07/16 02:42:19;;;;;;;9.10;6.43;;;;;;;18.51;100.00;96906.31;5075604;28;20230;-65
2023/07/16 02:44:47;;;;;;;6.67;5.73;;;;;;;18.49;100.00;96900.38;5077739;28;20235;-65
2023/07/16 02:47:14;;;;;;;7.07;6.50;;;;;;;18.49;100.00;96891.50;5078973;28;20199;-63
2023/07/16 02:49:42;;;;;;;6.70;6.20;;;;;;;18.54;100.00;96877.38;5073508;28;20206;-64
2023/07/16 02:52:09;;;;;;;7.17;6.67;;;;;;;18.48;100.00;96885.34;5084138;28;20206;-64
2023/07/16 02:54:38;;;;;;;6.10;5.70;;;;;;;18.46;100.00;96900.03;5076716;28;20206;-64
2023/07/16 02:57:06;;;;;;;6.57;6.07;;;;;;;18.46;100.00;96906.22;5079460;28;20253;-65
2023/07/16 02:59:34;;;;;;;7.03;6.47;;;;;;;18.42;100.00;96912.31;5069212;28;20311;-66
2023/07/16 03:02:01;;;;;;;6.40;5.93;;;;;;;18.48;100.00;96914.84;5077608;28;20900;-67
2023/07/16 03:04:29;;;;;;;6.07;5.57;;;;;;;18.46;100.00;96924.16;5073764;28;20220;-66
2023/07/16 03:06:57;;;;;;;6.57;6.13;;;;;;;18.46;100.00;96940.25;5074930;28;20208;-63
2023/07/16 03:09:24;;;;;;;6.20;5.70;;;;;;;18.41;100.00;96946.38;5073735;28;20248;-63
2023/07/16 03:11:53;;;;;;;5.60;5.20;;;;;;;18.39;100.00;96945.78;5076748;28;20206;-63
2023/07/16 03:14:21;;;;;;;6.27;5.77;;;;;;;18.29;100.00;96956.31;5075775;28;20229;-63
2023/07/16 03:16:49;;;;;;;5.53;5.13;;;;;;;18.33;100.00;96970.88;5078513;28;20258;-63
2023/07/16 03:19:16;;;;;;;5.27;4.97;;;;;;;18.31;100.00;96965.75;5073730;28;20234;-64
2023/07/16 03:21:45;;;;;;;5.63;5.17;;;;;;;18.30;100.00;96969.50;5075578;28;20626;-64
2023/07/16 03:24:13;;;;;;;5.73;5.33;;;;;;;18.27;100.00;96969.97;5077484;28;20198;-64
2023/07/16 03:26:41;;;;;;;5.80;5.33;;;;;;;18.24;100.00;96983.88;5073424;28;20226;-64
2023/07/16 03:29:10;;;;;;;5.30;4.90;;;;;;;18.26;100.00;96995.16;5076888;28;20238;-65
2023/07/16 03:31:37;;;;;;;5.03;4.63;;;;;;;18.18;100.00;96988.31;5073799;28;20219;-66
2023/07/16 03:34:05;;;;;;;5.50;5.10;;;;;;;18.18;100.00;96966.84;5075616;28;20228;-65
2023/07/16 03:36:33;;;;;;;5.97;5.47;;;;;;;18.26;100.00;96957.63;5078375;28;20222;-65
2023/07/16 03:39:00;;;;;;;5.27;4.87;;;;;;;18.28;100.00;96957.38;5076476;28;20290;-65
2023/07/16 03:41:28;;;;;;;6.10;5.60;;;;;;;18.37;100.00;96953.25;5076896;28;20314;-65
2023/07/16 03:43:55;;;;;;;5.50;5.10;;;;;;;18.43;100.00;96935.38;5074203;28;20206;-65
2023/07/16 03:46:24;;;;;;;5.97;5.57;;;;;;;18.43;100.00;96935.38;5080852;28;20295;-66
2023/07/16 03:48:54;;;;;;;5.80;5.30;;;;;;;18.47;100.00;96944.56;5075790;28;20233;-65
2023/07/16 03:51:21;;;;;;;6.37;5.77;;;;;;;18.52;100.00;96933.94;5078431;28;20638;-64
2023/07/16 03:53:49;;;;;;;6.57;6.17;;;;;;;18.55;100.00;96916.56;5076429;28;20297;-65
2023/07/16 03:56:17;;;;;;;6.23;5.83;;;;;;;18.36;100.00;96911.38;5076783;28;20691;-65
2023/07/16 03:58:44;;;;;;;6.47;5.97;;;;;;;18.33;100.00;96911.88;5076979;28;20198;-65
2023/07/16 04:01:12;;;;;;;5.93;5.43;;;;;;;18.46;100.00;96913.44;5072901;28;20717;-64
2023/07/16 04:03:41;;;;;;;6.10;5.60;;;;;;;18.40;100.00;96901.81;5072641;28;20238;-65
2023/07/16 04:06:10;;;;;;;5.63;5.27;;;;;;;18.46;100.00;96890.13;5073641;28;20218;-65
2023/07/16 04:08:38;;;;;;;6.17;5.77;;;;;;;18.29;100.00;96878.53;5074215;28;20314;-64
2023/07/16 04:11:06;;;;;;;6.30;5.70;;;;;;;18.35;100.00;96905.22;5077741;28;20244;-66
2023/07/16 04:13:34;;;;;;;5.13;4.73;;;;;;;18.37;100.00;96915.69;5075717;28;20293;-65
2023/07/16 04:16:01;;;;;;;5.30;4.90;;;;;;;18.36;100.00;96914.91;5079035;28;20231;-69
2023/07/16 04:18:29;;;;;;;5.87;5.40;;;;;;;18.41;100.00;96922.22;5073124;28;20274;-66
2023/07/16 04:20:58;;;;;;;5.83;5.43;;;;;;;18.47;100.00;96915.91;5073605;28;20223;-65
2023/07/16 04:23:26;;;;;;;5.90;5.50;;;;;;;18.40;100.00;96919.78;5074989;28;20202;-65
2023/07/16 04:25:54;;;;;;;6.23;5.80;;;;;;;18.49;100.00;96942.47;5077346;28;20317;-65
2023/07/16 04:28:22;;;;;;;6.03;5.53;;;;;;;18.52;100.00;96934.75;5074420;28;20207;-66
2023/07/16 04:30:49;;;;;;;6.03;5.63;;;;;;;18.50;100.00;96957.50;5067735;28;20229;-66
2023/07/16 04:33:19;;;;;;;6.97;6.40;;;;;;;18.53;100.00;96965.06;5074765;28;20290;-66
2023/07/16 04:35:46;;;;;;;6.20;5.67;;;;;;;18.61;100.00;96963.88;5072135;28;20312;-66
2023/07/16 04:38:15;;;;;;;6.83;6.23;;;;;;;18.68;100.00;96974.47;5074648;28;20791;-67
2023/07/16 04:40:44;;;;;;;5.80;5.40;;;;;;;18.65;100.00;96992.69;5072887;28;20313;-68
2023/07/16 04:43:12;;;;;;;6.23;5.83;;;;;;;18.65;100.00;97000.72;5072463;28;20259;-66
2023/07/16 04:45:39;;;;;;;6.20;5.80;;;;;;;18.58;100.00;97013.47;5073495;28;20252;-67
2023/07/16 04:48:07;;;;;;;7.00;6.50;;;;;;;18.62;100.00;97025.34;5076430;28;20234;-69
2023/07/16 04:50:35;;;;;;;8.93;7.67;;;;;;;18.72;100.00;97016.66;5078544;28;20941;-70
2023/07/16 04:53:02;;;;;;;7.60;6.90;;;;;;;18.66;100.00;97021.13;5077295;28;20222;-66
2023/07/16 04:55:36;;;;;;;8.80;7.93;;;;;;;18.51;100.00;97018.97;5082535;28;20272;-67
2023/07/16 04:58:03;;;;;;;7.93;7.33;;;;;;;18.64;100.00;97028.63;5076880;28;20214;-67
2023/07/16 05:00:32;;;;;;;7.83;7.10;;;;;;;18.86;100.00;97035.16;5079110;28;20914;-66
2023/07/16 05:03:00;;;;;;;8.80;6.30;;;;;;;18.85;100.00;97038.91;5080476;28;20244;-66
2023/07/16 05:05:28;;;;;;;7.37;6.77;;;;;;;18.83;100.00;97054.44;5078052;28;20253;-67
2023/07/16 05:07:55;;;;;;;6.80;6.30;;;;;;;18.65;100.00;97051.72;5078793;28;20240;-67
2023/07/16 05:10:24;;;;;;;6.97;6.33;;;;;;;18.72;100.00;97061.47;5078396;28;20396;-68
2023/07/16 05:12:53;;;;;;;6.67;6.17;;;;;;;18.62;100.00;97070.97;5074760;28;20216;-67
2023/07/16 05:15:21;;;;;;;5.93;5.53;;;;;;;18.60;100.00;97074.94;5077394;28;20226;-67
2023/07/16 05:17:48;;;;;;;5.30;5.00;;;;;;;18.64;100.00;97070.72;5076266;28;20205;-66
2023/07/16 05:20:16;;;;;;;5.40;5.10;;;;;;;18.63;100.00;97079.81;5081232;28;20833;-66
2023/07/16 05:22:46;;;;;;;4.97;4.50;;;;;;;18.65;100.00;97061.59;5077232;28;20282;-66
2023/07/16 05:25:13;;;;;;;5.17;4.17;;;;;;;18.70;100.00;97059.03;5079041;28;20219;-67
2023/07/16 05:27:41;;;;;;;3.50;3.30;;;;;;;18.54;100.00;97051.75;5079759;28;20205;-65
2023/07/16 05:30:11;;;;;;;3.77;3.40;;;;;;;18.41;100.00;97040.25;5076054;28;20249;-66
2023/07/16 05:32:38;;;;;;;2.67;2.47;;;;;;;18.32;100.00;97030.91;5080682;28;20509;-65
2023/07/16 05:35:07;;;;;;;2.67;2.57;;;;;;;18.31;100.00;97037.34;5075308;28;20297;-65
2023/07/16 05:37:34;;;;;;;2.87;2.67;;;;;;;18.34;100.00;97034.19;5084226;28;20209;-65
2023/07/16 05:40:03;;;;;;;4.33;2.67;;;;;;;18.37;100.00;97039.06;5074466;28;20912;-65
2023/07/16 05:42:31;;;;;;;3.47;2.60;;;;;;;18.31;100.00;97050.75;5078144;28;20597;-65
2023/07/16 05:44:58;;;;;;;2.53;2.43;;;;;;;18.39;100.00;97053.09;5074589;28;20308;-66
2023/07/16 05:47:27;;;;;;;2.60;2.40;;;;;;;18.32;100.00;97058.56;5079032;28;20757;-66
2023/07/16 05:49:55;;;;;;;1.97;1.93;;;;;;;18.29;100.00;97051.00;5075748;28;20202;-66
2023/07/16 05:52:23;;;;;;;2.57;2.40;;;;;;;18.41;100.00;97048.28;5081446;28;20688;-68
2023/07/16 05:54:50;;;;;;;2.20;2.10;;;;;;;18.47;100.00;97058.06;5079591;28;20668;-66
2023/07/16 05:57:18;;;;;;;3.07;2.80;;;;;;;18.60;100.00;97067.72;5079527;28;20302;-66
2023/07/16 05:59:45;;;;;;;3.93;2.63;;;;;;;18.62;100.00;97057.56;5077950;28;20294;-67
2023/07/16 06:02:13;;;;;;;2.77;2.67;;;;;;;18.71;100.00;97047.22;5077598;28;20226;-66
2023/07/16 06:04:42;;;;;;;2.53;2.33;;;;;;;18.67;100.00;97062.19;5080110;28;20633;-66
2023/07/16 06:07:10;;;;;;;2.47;2.23;;;;;;;18.65;100.00;97066.97;5079873;28;20244;-66
2023/07/16 06:09:37;;;;;;;2.37;2.17;;;;;;;18.54;100.00;97067.84;5083311;28;20650;-66
2023/07/16 06:12:05;;;;;;;2.40;2.30;;;;;;;18.57;100.00;97075.41;5078456;28;20874;-65
2023/07/16 06:14:33;;;;;;;5.30;3.93;;;;;;;18.51;100.00;97072.63;5077732;28;20211;-65
2023/07/16 06:17:01;;;;;;;4.20;3.90;;;;;;;18.40;100.00;97065.44;5078060;28;20191;-65
2023/07/16 06:19:29;;;;;;;2.00;1.90;;;;;;;18.34;100.00;97066.38;5078421;28;20236;-65
2023/07/16 06:21:58;;;;;;;2.17;2.07;;;;;;;18.53;100.00;97083.09;5078273;28;20235;-66
2023/07/16 06:24:26;;;;;;;2.30;2.13;;;;;;;18.57;100.00;97091.50;5081231;28;20207;-66
2023/07/16 06:26:53;;;;;;;2.30;2.20;;;;;;;18.66;100.00;97079.34;5056010;27;20225;-67
2023/07/16 06:29:21;;;;;;;2.50;1.87;;;;;;;18.75;100.00;97085.16;5074841;28;20207;-67
2023/07/16 06:31:56;;;;;;;2.83;2.50;;;;;;;18.75;100.00;97087.81;5076639;28;20687;-67
2023/07/16 06:34:24;;;;;;;2.30;2.10;;;;;;;18.49;100.00;97093.50;5074628;28;20206;-67
2023/07/16 06:36:52;;;;;;;2.00;1.87;;;;;;;18.58;100.00;97093.13;5073676;28;20222;-68
2023/07/16 06:39:21;;;;;;;2.40;2.20;;;;;;;18.85;100.00;97100.63;5081949;28;20263;-67
2023/07/16 06:41:48;;;;;;;2.03;1.93;;;;;;;18.79;100.00;97103.22;5075773;28;20256;-66
2023/07/16 06:44:16;;;;;;;1.87;1.77;;;;;;;18.74;100.00;97100.41;5074560;28;20874;-67
2023/07/16 06:46:44;;;;;;;2.87;2.07;;;;;;;18.63;100.00;97095.91;5079293;28;20308;-67
2023/07/16 06:49:11;;;;;;;3.03;2.10;;;;;;;18.55;100.00;97098.97;5077053;28;20703;-68
2023/07/16 06:51:39;;;;;;;2.70;2.03;;;;;;;18.72;100.00;97102.53;4969636;28;20317;-67
2023/07/16 06:54:07;;;;;;;1.83;1.73;;;;;;;18.68;100.00;97114.00;5073195;28;20211;-67
2023/07/16 06:56:36;;;;;;;5.00;1.93;;;;;;;18.69;100.00;97116.44;5072577;28;20328;-67
2023/07/16 06:59:04;;;;;;;2.63;2.43;;;;;;;18.61;100.00;97123.00;5072144;28;20332;-70
2023/07/16 07:01:31;;;;;;;2.30;2.20;;;;;;;18.58;100.00;97120.78;5075442;28;21016;-68
2023/07/16 07:03:59;;;;;;;2.23;2.10;;;;;;;18.66;100.00;97122.28;5010918;28;20220;-68
2023/07/16 07:06:28;;;;;;;2.90;2.70;;;;;;;18.69;100.00;97126.34;5076397;28;20221;-69
2023/07/16 07:08:55;;;;;;;2.00;1.90;;;;;;;18.71;100.00;97130.41;5071353;28;20203;-70
2023/07/16 07:11:23;;;;;;;2.47;2.30;;;;;;;18.91;100.00;97132.69;5044455;28;21083;-70
2023/07/16 07:13:52;;;;;;;2.00;1.80;;;;;;;19.14;100.00;97136.38;5050310;28;20217;-68
2023/07/16 07:16:20;;;;;;;3.10;2.27;;;;;;;19.20;100.00;97127.34;5076446;28;20313;-68
2023/07/16 07:18:48;;;;;;;3.00;2.13;;;;;;;19.37;100.00;97122.00;5073322;28;20213;-69
2023/07/16 07:21:16;;;;;;;1.97;1.87;;;;;;;19.30;100.00;97125.91;5071963;28;20628;-68
2023/07/16 07:23:43;;;;;;;2.70;2.27;;;;;;;19.15;100.00;97123.78;5073453;28;20317;-68
2023/07/16 07:26:11;;;;;;;4.40;2.93;;;;;;;18.37;100.00;97100.75;5074693;28;20309;-68
2023/07/16 07:28:38;;;;;;;2.20;2.00;;;;;;;18.18;100.00;97133.09;5075392;28;20689;-68
2023/07/16 07:31:07;;;;;;;2.27;2.07;;;;;;;18.36;100.00;97128.63;5072938;28;20397;-69
2023/07/16 07:33:35;;;;;;;3.23;2.30;;;;;;;18.34;100.00;97130.72;5077677;28;20190;-70
2023/07/16 07:36:03;;;;;;;3.60;2.27;;;;;;;18.13;100.00;97124.94;5076918;28;20230;-70
2023/07/16 07:38:30;;;;;;;2.50;2.30;;;;;;;18.27;100.00;97130.03;5075135;28;20238;-69
2023/07/16 07:40:58;;;;;;;2.77;2.33;;;;;;;18.18;100.00;97132.25;5079160;28;20206;-67
2023/07/16 07:43:26;;;;;;;2.53;2.33;;;;;;;18.41;100.00;97136.81;5075664;28;20831;-68
2023/07/16 07:45:53;;;;;;;3.07;1.80;;;;;;;18.89;100.00;97123.25;5075632;28;20666;-69
2023/07/16 07:48:22;;;;;;;2.77;2.57;;;;;;;19.08;100.00;97143.50;5079301;28;20294;-68
2023/07/16 07:50:50;;;;;;;2.40;2.20;;;;;;;19.34;100.00;97140.50;5076888;28;20698;-68
2023/07/16 07:53:20;;;;;;;2.57;2.40;;;;;;;19.37;100.00;97150.75;5078737;28;20205;-69
2023/07/16 07:55:47;;;;;;;2.70;2.50;;;;;;;19.90;100.00;97146.03;5080259;28;20621;-68
2023/07/16 07:58:15;;;;;;;2.20;2.10;;;;;;;20.21;100.00;97141.06;5073460;28;20214;-67
2023/07/16 08:00:43;;;;;;;2.50;2.03;;;;;;;20.39;100.00;97137.28;5075205;28;20205;-68
2023/07/16 08:03:10;;;;;;;2.83;2.33;;;;;;;20.11;100.00;97135.56;5078706;28;21426;-67
2023/07/16 08:05:41;;;;;;;3.10;2.40;;;;;;;19.72;100.00;97125.56;5076338;28;20218;-68
2023/07/16 08:08:08;;;;;;;2.17;2.07;;;;;;;19.50;100.00;97137.00;5077406;28;20466;-67
2023/07/16 08:10:36;;;;;;;3.10;2.00;;;;;;;19.72;100.00;97138.16;5076597;28;20202;-68
2023/07/16 08:13:04;;;;;;;2.40;2.30;;;;;;;19.80;100.00;97135.06;5075124;28;20282;-67
2023/07/16 08:15:31;;;;;;;2.53;2.33;;;;;;;19.56;100.00;97129.84;5074862;28;20321;-66
2023/07/16 08:17:59;;;;;;;4.87;1.93;;;;;;;19.51;100.00;97132.47;5080245;28;20293;-67
2023/07/16 08:20:28;;;;;;;3.00;2.10;;;;;;;19.24;100.00;97141.13;5074281;28;20237;-67
2023/07/16 08:22:57;;;;;;;2.10;1.90;;;;;;;19.45;100.00;97146.84;5074820;28;20791;-67
2023/07/16 08:25:26;;;;;;;4.87;3.03;;;;;;;19.81;100.00;97140.19;5073662;28;20230;-67
2023/07/16 08:27:54;;;;;;;4.60;2.47;;;;;;;20.07;100.00;97139.81;5075344;28;20198;-68
2023/07/16 08:30:21;;;;;;;4.13;2.97;;;;;;;20.45;100.00;97156.19;5075532;28;20260;-66
2023/07/16 08:32:49;;;;;;;3.97;3.40;;;;;;;20.66;100.00;97152.72;5073281;28;20242;-66
2023/07/16 08:35:17;;;;;;;4.27;2.30;;;;;;;20.76;100.00;97138.56;5071197;28;20236;-66
2023/07/16 08:37:45;;;;;;;2.73;2.07;;;;;;;20.78;100.00;97141.00;5074268;28;20207;-67
2023/07/16 08:40:14;;;;;;;3.70;2.77;;;;;;;20.74;100.00;97148.78;5072620;28;21216;-64
2023/07/16 08:42:45;;;;;;;3.10;2.77;;;;;;;20.23;100.00;97151.59;5079098;28;20688;-66
2023/07/16 08:45:13;;;;;;;2.60;2.13;;;;;;;20.41;100.00;97128.97;5073040;28;20366;-65
2023/07/16 08:47:40;;;;;;;2.07;1.90;;;;;;;20.36;100.00;97135.09;5079371;28;20226;-65
2023/07/16 08:50:09;;;;;;;2.07;1.90;;;;;;;20.36;100.00;97137.78;5074883;28;20206;-66
2023/07/16 08:52:37;;;;;;;2.20;1.90;;;;;;;19.88;100.00;97139.22;5078911;28;20240;-65
2023/07/16 08:55:05;;;;;;;3.47;2.57;;;;;;;19.63;100.00;97152.00;5075564;28;20232;-65
2023/07/16 08:57:34;;;;;;;3.07;2.30;;;;;;;19.55;100.00;97155.09;5076513;28;20214;-65
2023/07/16 09:00:02;;;;;;;2.37;2.23;;;;;;;19.72;100.00;97146.22;5074455;28;20207;-64
2023/07/16 09:02:31;;;;;;;1.77;1.67;;;;;;;19.80;100.00;97135.06;5073713;28;20203;-66
2023/07/16 09:04:59;;;;;;;3.20;2.37;;;;;;;20.27;100.00;97130.38;5073667;28;20224;-67
2023/07/16 09:07:27;;;;;;;3.00;2.20;;;;;;;20.27;100.00;97109.69;5076874;28;20195;-65
2023/07/16 09:10:00;;;;;;;3.30;2.50;;;;;;;20.26;100.00;97116.13;5079273;28;20238;-65
2023/07/16 09:12:29;;;;;;;2.17;2.07;;;;;;;19.99;100.00;97102.59;5074706;28;20681;-67
2023/07/16 09:14:58;;;;;;;2.77;2.50;;;;;;;19.91;100.00;97120.75;5078192;28;20252;-66
2023/07/16 09:17:26;;;;;;;2.70;2.30;;;;;;;19.98;100.00;97135.91;5076008;28;20288;-66
2023/07/16 09:19:54;;;;;;;3.17;2.10;;;;;;;19.74;100.00;97154.84;5075027;28;20657;-66
2023/07/16 09:22:23;;;;;;;3.73;2.47;;;;;;;19.12;100.00;97151.91;5078086;28;20285;-65
2023/07/16 09:24:51;;;;;;;2.40;2.20;;;;;;;19.20;100.00;97143.47;5075237;28;20228;-65
2023/07/16 09:27:18;;;;;;;2.57;2.10;;;;;;;19.41;100.00;97137.63;5071215;28;20477;-65
2023/07/16 09:29:46;;;;;;;2.50;2.23;;;;;;;19.71;100.00;97147.28;5071099;28;20198;-66
2023/07/16 09:32:17;;;;;;;4.27;2.77;;;;;;;20.21;100.00;97133.00;5076383;28;20207;-66
2023/07/16 09:34:45;;;;;;;4.03;2.67;;;;;;;20.44;100.00;97144.63;5073069;28;20199;-66
2023/07/16 09:37:13;;;;;;;3.00;2.20;;;;;;;20.37;100.00;97139.41;5072233;28;20205;-66
2023/07/16 09:39:40;;;;;;;3.17;2.00;;;;;;;20.48;100.00;97148.44;5074650;28;20210;-65
2023/07/16 09:42:08;;;;;;;2.43;2.23;;;;;;;20.25;100.00;97150.28;5080289;28;20222;-68
2023/07/16 09:44:37;;;;;;;2.43;2.23;;;;;;;20.06;100.00;97143.56;5075272;28;20276;-67
2023/07/16 09:47:04;;;;;;;4.10;2.20;;;;;;;20.37;100.00;97141.31;5078019;28;20241;-66
2023/07/16 09:49:33;;;;;;;2.37;1.93;;;;;;;20.48;100.00;97137.69;5079555;28;20308;-67
2023/07/16 09:52:02;;;;;;;2.40;2.20;;;;;;;20.50;100.00;97140.13;5077888;28;20816;-66
2023/07/16 09:54:33;;;;;;;2.70;2.50;;;;;;;20.70;100.00;97136.88;5075613;28;20202;-66
2023/07/16 09:57:02;;;;;;;3.43;2.20;;;;;;;20.63;100.00;97141.63;5076477;28;20233;-67
2023/07/16 09:59:31;;;;;;;2.40;2.30;;;;;;;20.77;100.00;97148.28;5078331;28;20749;-68
2023/07/16 10:01:59;;;;;;;2.47;2.27;;;;;;;20.86;100.00;97148.69;5073754;28;20329;-66
2023/07/16 10:04:27;;;;;;;3.50;2.83;;;;;;;20.82;100.00;97145.66;5073169;28;21007;-67
2023/07/16 10:06:58;;;;;;;2.30;2.10;;;;;;;20.62;100.00;97145.38;5078100;28;20233;-68
2023/07/16 10:09:32;;;;;;;2.27;2.07;;;;;;;20.07;100.00;97142.50;5072443;28;20745;-66
2023/07/16 10:12:09;;;;;;;12.30;11.10;;;;;;;20.39;100.00;97158.00;5071922;28;20268;-67
2023/07/16 10:14:40;;;;;;;6.60;6.07;;;;;;;20.53;100.00;97145.81;5077376;28;20567;-66
2023/07/16 10:17:08;;;;;;;4.63;4.23;;;;;;;20.63;100.00;97153.22;5073812;28;20226;-67
2023/07/16 10:19:47;;;;;;;23.27;21.30;;;;;;;20.53;100.00;97150.41;5073914;28;20227;-67
2023/07/16 10:22:16;;;;;;;34.73;31.33;;;;;;;20.59;100.00;97152.09;5076205;28;20948;-67
2023/07/16 10:24:44;;;;;;;5.43;5.00;;;;;;;20.82;100.00;97145.66;5078956;28;20317;-69
2023/07/16 10:27:14;;;;;;;3.10;2.37;;;;;;;20.64;100.00;97144.06;5077884;28;20842;-67
2023/07/16 10:29:41;;;;;;;2.30;2.10;;;;;;;20.46;100.00;97136.31;5076478;28;20288;-67
2023/07/16 10:32:09;;;;;;;2.63;1.90;;;;;;;20.64;100.00;97144.06;5075369;28;20935;-66
2023/07/16 10:34:37;;;;;;;4.17;2.40;;;;;;;20.45;100.00;97140.03;5076443;28;20654;-66
2023/07/16 10:37:06;;;;;;;3.00;2.30;;;;;;;20.82;100.00;97129.50;5076420;28;20294;-67
2023/07/16 10:39:35;;;;;;;2.90;2.63;;;;;;;21.27;100.00;97094.41;5077994;28;20842;-66
2023/07/16 10:42:04;;;;;;;2.40;2.20;;;;;;;22.20;100.00;97119.41;5078969;28;20288;-67
2023/07/16 10:44:31;;;;;;;3.37;2.20;;;;;;;22.23;100.00;97126.97;5074718;28;20250;-67
2023/07/16 10:46:59;;;;;;;2.67;2.00;;;;;;;22.35;100.00;97121.38;5074411;28;20310;-66
2023/07/16 10:49:28;;;;;;;2.20;2.10;;;;;;;22.90;100.00;97120.25;5073574;28;20214;-68
2023/07/16 10:51:59;;;;;;;2.93;2.63;;;;;;;22.59;100.00;97120.19;5079494;28;20890;-65
2023/07/16 10:54:27;;;;;;;3.80;2.60;;;;;;;22.68;100.00;97116.69;5078752;28;20194;-65
2023/07/16 10:56:56;;;;;;;2.43;2.00;;;;;;;23.33;100.00;97112.84;5079611;28;20745;-66
2023/07/16 10:59:24;;;;;;;1.97;1.83;;;;;;;23.36;100.00;97114.19;5072647;28;20231;-66
2023/07/16 11:01:52;;;;;;;2.83;2.43;;;;;;;23.40;100.00;97102.56;5082941;28;20322;-67
2023/07/16 11:04:19;;;;;;;2.50;2.20;;;;;;;23.26;100.00;97101.47;5076261;28;20233;-66
2023/07/16 11:06:47;;;;;;;2.57;2.37;;;;;;;23.33;100.00;97093.09;5080105;28;20229;-67
2023/07/16 11:09:14;;;;;;;3.10;2.87;;;;;;;23.54;100.00;97099.31;5076980;28;20263;-66
2023/07/16 11:11:42;;;;;;;2.43;2.23;;;;;;;23.69;100.00;97104.75;5081333;28;20256;-65
2023/07/16 11:14:11;;;;;;;2.47;1.70;;;;;;;23.70;100.00;97111.78;5072577;28;20203;-66
2023/07/16 11:16:39;;;;;;;2.50;2.30;;;;;;;23.81;100.00;97117.16;5080419;28;20801;-66
2023/07/16 11:19:07;;;;;;;3.07;2.40;;;;;;;23.51;100.00;97111.50;5075412;28;20207;-67
2023/07/16 11:21:35;;;;;;;2.20;2.10;;;;;;;23.80;100.00;97108.22;5080895;28;20234;-67
2023/07/16 11:24:09;;;;;;;2.93;2.23;;;;;;;23.87;100.00;97118.78;5076279;28;20220;-66
2023/07/16 11:26:37;;;;;;;2.97;2.20;;;;;;;23.87;100.00;97118.78;5075790;28;20226;-61
2023/07/16 11:29:15;;;;;;;3.50;2.40;;;;;;;23.47;100.00;97113.09;5072389;28;20234;-64